PWSweather.com
Personal Weather Stations
Station Observations

AwhituWaiuku, CA 268400

Lat: -37.058, Lon: -174.6346

Elevation: 250

Station Type: Personal

http://www.weather-display.com/windy/gb/grahamsbeach.htm

High Low Average
Temperature 61.7°F16.5°F 52.6°F11.4°F 56.3°F13.5°F
Dew Point 61.1°F16.2°F 52.1°F11.2°F 55.6°F13.1°F
Winds 15.4 mph SSW24.8 mph SSW 2.4 mph 3.9 mph 9.4 mph 15.1 mph
Wind Gusts 21.0 mph33.8 mph 4.0 mph6.4 mph 12.8 mph20.6 mph
Humidity 98% 87% 98%
Pressure 29.84 in1010.50 in 29.74 in1007.10 in -
Precipitation 0.00 in0.00 in - -
Hour Temp Dew Point Humidity Winds Wind Gusts Pressure Precip Precip Rate Daily Precip Total
12:01 AM 52.6°F11.4°C 52.1°F11.2°C 98% 11.2 mph S18.0 kmh S 13.0 mph20.9 kmh 29.81 in1009.5 mb 0.00 in0.0 mm 0.00 in/hr0.0 mm/hr 0.00 in0.0 mm
12:30 AM 52.7°F11.5°C 52.1°F11.2°C 98% 10.4 mph SW16.7 kmh SW 13.0 mph20.9 kmh 29.81 in1009.5 mb 0.00 in0.0 mm 0.00 in/hr0.0 mm/hr 0.00 in0.0 mm
01:01 AM 53.0°F11.7°C 52.5°F11.4°C 98% 11.4 mph SSW18.3 kmh SSW 15.0 mph24.1 kmh 29.81 in1009.5 mb 0.00 in0.0 mm 0.00 in/hr0.0 mm/hr 0.00 in0.0 mm
01:30 AM 53.3°F11.8°C 52.8°F11.6°C 98% 9.9 mph SW15.9 kmh SW 15.0 mph24.1 kmh 29.81 in1009.5 mb 0.00 in0.0 mm 0.00 in/hr0.0 mm/hr 0.00 in0.0 mm
02:01 AM 53.4°F11.9°C 52.8°F11.6°C 98% 10.7 mph SSW17.2 kmh SSW 16.0 mph25.7 kmh 29.80 in1009.1 mb 0.00 in0.0 mm 0.00 in/hr0.0 mm/hr 0.00 in0.0 mm
02:30 AM 53.4°F11.9°C 52.9°F11.6°C 98% 10.2 mph WSW16.4 kmh WSW 15.0 mph24.1 kmh 29.80 in1009.1 mb 0.00 in0.0 mm 0.00 in/hr0.0 mm/hr 0.00 in0.0 mm
03:01 AM 53.4°F11.9°C 52.8°F11.6°C 98% 7.1 mph SSW11.4 kmh SSW 10.0 mph16.1 kmh 29.79 in1008.8 mb 0.00 in0.0 mm 0.00 in/hr0.0 mm/hr 0.00 in0.0 mm
03:30 AM 53.4°F11.9°C 52.8°F11.6°C 98% 6.9 mph S11.1 kmh S 11.0 mph17.7 kmh 29.78 in1008.5 mb 0.00 in0.0 mm 0.00 in/hr0.0 mm/hr 0.00 in0.0 mm
04:01 AM 53.4°F11.9°C 52.8°F11.6°C 98% 13.6 mph S21.9 kmh S 18.0 mph29.0 kmh 29.78 in1008.5 mb 0.00 in0.0 mm 0.00 in/hr0.0 mm/hr 0.00 in0.0 mm
04:30 AM 53.6°F12.0°C 53.0°F11.7°C 98% 10.1 mph SW16.3 kmh SW 13.0 mph20.9 kmh 29.78 in1008.5 mb 0.00 in0.0 mm 0.00 in/hr0.0 mm/hr 0.00 in0.0 mm
05:01 AM 53.6°F12.0°C 53.0°F11.7°C 98% 9.2 mph SW14.8 kmh SW 15.0 mph24.1 kmh 29.78 in1008.5 mb 0.00 in0.0 mm 0.00 in/hr0.0 mm/hr 0.00 in0.0 mm
05:30 AM 53.7°F12.1°C 53.1°F11.7°C 98% 7.9 mph SW12.7 kmh SW 11.0 mph17.7 kmh 29.78 in1008.5 mb 0.00 in0.0 mm 0.00 in/hr0.0 mm/hr 0.00 in0.0 mm
06:01 AM 53.6°F12.0°C 53.1°F11.7°C 98% 7.1 mph SW11.4 kmh SW 11.0 mph17.7 kmh 29.78 in1008.5 mb 0.00 in0.0 mm 0.00 in/hr0.0 mm/hr 0.00 in0.0 mm
06:30 AM 53.3°F11.8°C 52.7°F11.5°C 98% 11.1 mph SW17.9 kmh SW 14.0 mph22.5 kmh 29.79 in1008.8 mb 0.00 in0.0 mm 0.00 in/hr0.0 mm/hr 0.00 in0.0 mm
07:01 AM 53.0°F11.7°C 52.5°F11.4°C 98% 7.2 mph SW11.6 kmh SW 14.0 mph22.5 kmh 29.79 in1008.8 mb 0.00 in0.0 mm 0.00 in/hr0.0 mm/hr 0.00 in0.0 mm
07:30 AM 53.7°F12.1°C 53.1°F11.7°C 98% 9.9 mph SW15.9 kmh SW 11.0 mph17.7 kmh 29.80 in1009.1 mb 0.00 in0.0 mm 0.00 in/hr0.0 mm/hr 0.00 in0.0 mm
08:01 AM 54.6°F12.6°C 54.0°F12.2°C 98% 9.3 mph WSW15.0 kmh WSW 11.0 mph17.7 kmh 29.81 in1009.5 mb 0.00 in0.0 mm 0.00 in/hr0.0 mm/hr 0.00 in0.0 mm
08:30 AM 56.0°F13.3°C 55.4°F13.0°C 98% 8.4 mph SW13.5 kmh SW 11.0 mph17.7 kmh 29.81 in1009.5 mb 0.00 in0.0 mm 0.00 in/hr0.0 mm/hr 0.00 in0.0 mm
09:01 AM 57.0°F13.9°C 56.4°F13.6°C 98% 8.7 mph SW14.0 kmh SW 13.0 mph20.9 kmh 29.82 in1009.8 mb 0.00 in0.0 mm 0.00 in/hr0.0 mm/hr 0.00 in0.0 mm
09:30 AM 57.7°F14.3°C 57.2°F14.0°C 98% 11.8 mph S19.0 kmh S 20.0 mph32.2 kmh 29.82 in1009.8 mb 0.00 in0.0 mm 0.00 in/hr0.0 mm/hr 0.00 in0.0 mm
10:01 AM 59.1°F15.1°C 58.5°F14.7°C 98% 8.2 mph SW13.2 kmh SW 10.0 mph16.1 kmh 29.82 in1009.8 mb 0.00 in0.0 mm 0.00 in/hr0.0 mm/hr 0.00 in0.0 mm
10:30 AM 59.4°F15.2°C 58.8°F14.9°C 98% 7.8 mph SW12.6 kmh SW 11.0 mph17.7 kmh 29.82 in1009.8 mb 0.00 in0.0 mm 0.00 in/hr0.0 mm/hr 0.00 in0.0 mm
11:01 AM 59.7°F15.4°C 59.1°F15.1°C 98% 9.3 mph WSW15.0 kmh WSW 11.0 mph17.7 kmh 29.82 in1009.8 mb 0.00 in0.0 mm 0.00 in/hr0.0 mm/hr 0.00 in0.0 mm
11:30 AM 60.0°F15.6°C 59.4°F15.2°C 98% 13.5 mph S21.7 kmh S 17.0 mph27.4 kmh 29.80 in1009.1 mb 0.00 in0.0 mm 0.00 in/hr0.0 mm/hr 0.00 in0.0 mm
12:01 PM 61.0°F16.1°C 60.4°F15.8°C 98% 9.0 mph SSW14.5 kmh SSW 13.0 mph20.9 kmh 29.80 in1009.1 mb 0.00 in0.0 mm 0.00 in/hr0.0 mm/hr 0.00 in0.0 mm
12:30 PM 60.0°F15.6°C 59.4°F15.2°C 98% 13.0 mph SW20.9 kmh SW 18.0 mph29.0 kmh 29.79 in1008.8 mb 0.00 in0.0 mm 0.00 in/hr0.0 mm/hr 0.00 in0.0 mm
01:01 PM 59.9°F15.5°C 59.3°F15.2°C 98% 12.3 mph SSW19.8 kmh SSW 20.0 mph32.2 kmh 29.78 in1008.5 mb 0.00 in0.0 mm 0.00 in/hr0.0 mm/hr 0.00 in0.0 mm
01:30 PM 60.3°F15.7°C 59.7°F15.4°C 98% 15.4 mph SSW24.8 kmh SSW 21.0 mph33.8 kmh 29.77 in1008.1 mb 0.00 in0.0 mm 0.00 in/hr0.0 mm/hr 0.00 in0.0 mm
02:01 PM 61.0°F16.1°C 60.4°F15.8°C 98% 9.2 mph W14.8 kmh W 15.0 mph24.1 kmh 29.77 in1008.1 mb 0.00 in0.0 mm 0.00 in/hr0.0 mm/hr 0.00 in0.0 mm
02:30 PM 61.7°F16.5°C 61.1°F16.2°C 98% 10.1 mph S16.3 kmh S 16.0 mph25.7 kmh 29.76 in1007.8 mb 0.00 in0.0 mm 0.00 in/hr0.0 mm/hr 0.00 in0.0 mm
03:01 PM 61.2°F16.2°C 60.6°F15.9°C 98% 11.3 mph SSW18.2 kmh SSW 18.0 mph29.0 kmh 29.76 in1007.8 mb 0.00 in0.0 mm 0.00 in/hr0.0 mm/hr 0.00 in0.0 mm
03:30 PM 60.5°F15.8°C 59.9°F15.5°C 98% 12.4 mph SW20.0 kmh SW 15.0 mph24.1 kmh 29.75 in1007.5 mb 0.00 in0.0 mm 0.00 in/hr0.0 mm/hr 0.00 in0.0 mm
04:01 PM 59.1°F15.1°C 58.5°F14.7°C 98% 11.1 mph S17.9 kmh S 15.0 mph24.1 kmh 29.75 in1007.5 mb 0.00 in0.0 mm 0.00 in/hr0.0 mm/hr 0.00 in0.0 mm
04:30 PM 59.9°F15.5°C 59.3°F15.2°C 98% 8.2 mph SSW13.2 kmh SSW 15.0 mph24.1 kmh 29.74 in1007.1 mb 0.00 in0.0 mm 0.00 in/hr0.0 mm/hr 0.00 in0.0 mm
05:01 PM 58.4°F14.7°C 57.8°F14.3°C 98% 8.9 mph S14.3 kmh S 10.0 mph16.1 kmh 29.75 in1007.5 mb 0.00 in0.0 mm 0.00 in/hr0.0 mm/hr 0.00 in0.0 mm
05:30 PM 59.3°F15.2°C 55.4°F13.0°C 87% 12.2 mph SW19.6 kmh SW 17.0 mph27.4 kmh 29.76 in1007.8 mb 0.00 in0.0 mm 0.00 in/hr0.0 mm/hr 0.00 in0.0 mm
06:01 PM 58.1°F14.5°C 57.6°F14.2°C 98% 6.5 mph S10.5 kmh S 8.0 mph12.9 kmh 29.77 in1008.1 mb 0.00 in0.0 mm 0.00 in/hr0.0 mm/hr 0.00 in0.0 mm
06:30 PM 57.0°F13.9°C 56.4°F13.6°C 98% 2.4 mph WSW3.9 kmh WSW 4.0 mph6.4 kmh 29.78 in1008.5 mb 0.00 in0.0 mm 0.00 in/hr0.0 mm/hr 0.00 in0.0 mm
07:01 PM 56.4°F13.6°C 55.8°F13.2°C 98% 10.1 mph WSW16.3 kmh WSW 13.0 mph20.9 kmh 29.80 in1009.1 mb 0.00 in0.0 mm 0.00 in/hr0.0 mm/hr 0.00 in0.0 mm
07:30 PM 55.7°F13.2°C 55.1°F12.8°C 98% 6.7 mph W10.8 kmh W 8.0 mph12.9 kmh 29.80 in1009.1 mb 0.00 in0.0 mm 0.00 in/hr0.0 mm/hr 0.00 in0.0 mm
08:01 PM 54.6°F12.6°C 54.1°F12.3°C 98% 6.3 mph WNW10.1 kmh WNW 8.0 mph12.9 kmh 29.81 in1009.5 mb 0.00 in0.0 mm 0.00 in/hr0.0 mm/hr 0.00 in0.0 mm
08:30 PM 54.3°F12.4°C 53.7°F12.1°C 98% 8.0 mph W12.9 kmh W 10.0 mph16.1 kmh 29.82 in1009.8 mb 0.00 in0.0 mm 0.00 in/hr0.0 mm/hr 0.00 in0.0 mm
09:01 PM 54.0°F12.2°C 53.5°F11.9°C 98% 7.2 mph NW11.6 kmh NW 8.0 mph12.9 kmh 29.82 in1009.8 mb 0.00 in0.0 mm 0.00 in/hr0.0 mm/hr 0.00 in0.0 mm
09:30 PM 54.2°F12.3°C 53.6°F12.0°C 98% 6.1 mph WNW9.8 kmh WNW 7.0 mph11.3 kmh 29.83 in1010.2 mb 0.00 in0.0 mm 0.00 in/hr0.0 mm/hr 0.00 in0.0 mm
10:01 PM 54.5°F12.5°C 53.9°F12.2°C 98% 8.2 mph WSW13.2 kmh WSW 9.0 mph14.5 kmh 29.84 in1010.5 mb 0.00 in0.0 mm 0.00 in/hr0.0 mm/hr 0.00 in0.0 mm
10:30 PM 54.6°F12.6°C 54.0°F12.2°C 98% 8.6 mph W13.8 kmh W 11.0 mph17.7 kmh 29.84 in1010.5 mb 0.00 in0.0 mm 0.00 in/hr0.0 mm/hr 0.00 in0.0 mm
11:01 PM 54.3°F12.4°C 53.7°F12.1°C 98% 8.7 mph W14.0 kmh W 9.0 mph14.5 kmh 29.84 in1010.5 mb 0.00 in0.0 mm 0.00 in/hr0.0 mm/hr 0.00 in0.0 mm
11:30 PM 54.0°F12.2°C 53.4°F11.9°C 98% 6.3 mph W10.1 kmh W 7.0 mph11.3 kmh 29.84 in1010.5 mb 0.00 in0.0 mm 0.00 in/hr0.0 mm/hr 0.00 in0.0 mm